Edina, MN (55435)

8:03 PM CDT op 29 maart 2015 (GMT -0500)
Cornelia | | Change Station
CLOSE
Current Station
Persoonlijk weerstation
Location: Edina, MN
Geometrische hoogte: 860 ft
Nabije weerstations

Hoogte 860 ft 44.87 °N, 93.34 °W | Updated 1 second ago

Helder
Helder
49.5 °F
Voelt als 46 °F
N
9.2
Wind Variabel Wind van NW
Gusts 9.8 mijl/u

Vandaag
Hoog -- | Laag -- °F
--% Kans op neerslag
Gisteren
Hoog -- | Laag -- °F
Precip. -- inches
7:00 AM 7:37 PM
Wassende maan, 75% visible
Druk 29.92 inches
Zicht 10.0 mijlen
Wolken Gering 6500 ft
Gevoelstemperatuur 46 °F
Dauwpunt 27 °F
Vochtigheid 41%
Neerslag 0.25 inches
Dikte sneeuw Niet beschikbaar.
UV 0.0 van de 12
Pollen 3.90 van de 12
Luchtkwaliteit Niet beschikbaar.
Flu Activity Niet beschikbaar.
METAR KMSP 300053Z 30012G22KT 10SM FEW065 09/M03 A2990 RMK AO2 PK WND 31030/0013 SLP132 T00891033

More Conditions Fewer Conditions

Druk 29.92 inches
Zicht 10.0 mijlen
Wolken Gering 6500 ft
Gevoelstemperatuur 46 °F
Dauwpunt 27 °F
Vochtigheid 41%
Neerslag 0.25 inches
Dikte sneeuw Niet beschikbaar.
UV 0.0 van de 12
Pollen 3.90 van de 12
Luchtkwaliteit Niet beschikbaar.
Flu Activity Niet beschikbaar.
METAR KMSP 300053Z 30012G22KT 10SM FEW065 09/M03 A2990 RMK AO2 PK WND 31030/0013 SLP132 T00891033

More Conditions Fewer Conditions

10-Day Weather Forecast

Almanac

Astronomie

Mar. 29, 2015 Opkomst Ondergang
Werkelijke tijd
Burgerlijke schemering
Nautische schemering
Astronomische schemering
Maan
Golflengte van het zichtbare licht
Daglengte
Tomorrow will be .
, % of the Moon is Illuminated

Extremen vandaag

State Highs State Lows

Community

WunderPhotos

Upload Photos

1,809,392 foto’s ge-upload!

WunderBlogs® & News

Nearby

Luchtkwaliteit

  Luchtkwaliteit LK-index Verontreinigende stof
Not available.

Dikte sneeuw

Station Depth Geometrische hoogte

Aardbevingen

Stad Distance Mag. Time & Date
Minimum magnitude displayed is 2.5.

Watertemperatuur langs de kust

Plaats Temperatuur

Stations

Nabije weerstations

Locatie station Temp. Gevoelstemperatuur Dauwpunt Vochtigheid Wind Precip. Hoogte Geactualiseerd Type